This is the latest recevied weather packets stored in our database for station/object AL7BX-WX. If no packets are shown the sender has not sent any weather packets the latest 10 day(s).
| Time | Temp. | Humidity | Pressure | Rain* | Wind** | Luminosity | Snow |
|---|---|---|---|---|---|---|---|
| 1778153223 | 2.22° C | 55% | 0 hPa | 0 mm | - | - | - |
| 1778152683 | 2.22° C | 55% | 0 hPa | 0 mm | - | - | - |
| 1778150703 | 3.33° C | 50% | 0 hPa | 0 mm | - | - | - |
| 1778150293 | 3.33° C | 50% | 0 hPa | 0 mm | - | - | - |
| 1778149623 | 2.78° C | 49% | 0 hPa | 0 mm | - | - | - |
| 1778147643 | 2.78° C | 49% | 0 hPa | 0 mm | - | - | - |
| 1778144534 | 3.89° C | 51% | 0 hPa | 0 mm | - | - | - |
| 1778143503 | 3.33° C | 49% | 0 hPa | 0 mm | - | - | - |
| 1778138412 | 6.11° C | 42% | 0 hPa | 0 mm | - | - | - |
| 1778133606 | 8.89° C | 40% | 0 hPa | 0 mm | - | - | - |
| 1778131083 | 7.22° C | 40% | 0 hPa | 0 mm | - | - | - |
| 1778128023 | 9.44° C | 35% | 0 hPa | 0 mm | - | - | - |
| 1778125503 | 9.44° C | 33% | 0 hPa | 0 mm | - | - | - |
| 1778122803 | 12.78° C | 28% | 0 hPa | 0 mm | - | - | - |
| 1778117223 | 16.11° C | 27% | 0 hPa | 0 mm | - | - | - |
| 1778116683 | 16.11° C | 28% | 0 hPa | 0 mm | - | - | - |
| 1778112003 | 17.22° C | 26% | 0 hPa | 0 mm | - | - | - |
| 1778111643 | 17.78° C | 27% | 0 hPa | 0 mm | - | - | - |
| 1778109483 | 17.78° C | 25% | 0 hPa | 0 mm | - | - | - |
| 1778106963 | 17.78° C | 29% | 0 hPa | 0 mm | - | - | - |
| 1778103903 | 17.22° C | 31% | 0 hPa | 0 mm | - | - | - |
| 1778101874 | 17.22° C | 34% | 0 hPa | 0 mm | - | - | - |
| 1778099763 | 16.67° C | 35% | 0 hPa | 0 mm | - | - | - |
| 1778098143 | 16.67° C | 40% | 0 hPa | 0 mm | - | - | - |
| 1778092563 | 15.56° C | 46% | 0 hPa | 0 mm | - | - | - |
* Rain latest hour (hover to see other rain measurements)
** Current wind speed in m/s (hover to see current wind gust speed)